createdAt,value
2022-09-07T00:00:31.580Z,17.38
2022-09-07T00:02:43.706Z,17.32
2022-09-07T00:04:55.736Z,17.20
2022-09-07T00:07:07.827Z,17.10
2022-09-07T00:09:19.908Z,16.98
2022-09-07T00:11:32.824Z,16.88
2022-09-07T00:13:44.081Z,16.78
2022-09-07T00:15:56.216Z,16.73
2022-09-07T00:18:08.225Z,16.70
2022-09-07T00:20:20.303Z,16.65
2022-09-07T00:22:32.380Z,16.62
2022-09-07T00:24:44.501Z,16.58
2022-09-07T00:26:56.565Z,16.52
2022-09-07T00:29:08.659Z,16.55
2022-09-07T00:31:21.744Z,16.55
2022-09-07T00:33:33.807Z,16.55
2022-09-07T00:35:45.906Z,16.49
2022-09-07T00:37:57.955Z,16.44
2022-09-07T00:40:10.642Z,16.41
2022-09-07T00:42:22.106Z,16.35
2022-09-07T00:44:35.141Z,16.27
2022-09-07T00:46:46.375Z,16.23
2022-09-07T00:48:58.365Z,16.18
2022-09-07T00:51:10.444Z,16.15
2022-09-07T00:53:22.524Z,16.07
2022-09-07T00:55:34.614Z,15.94
2022-09-07T00:57:46.772Z,15.89
2022-09-07T00:59:58.812Z,15.81
2022-09-07T01:02:11.014Z,15.72
2022-09-07T01:04:22.970Z,15.64
2022-09-07T01:06:35.056Z,15.57
2022-09-07T01:08:47.156Z,15.51
2022-09-07T01:11:00.290Z,15.45
2022-09-07T01:13:11.312Z,15.38
2022-09-07T01:15:23.399Z,15.31
2022-09-07T01:17:35.461Z,15.30
2022-09-07T01:19:47.571Z,15.26
2022-09-07T01:22:00.621Z,15.26
2022-09-07T01:24:13.651Z,15.24
2022-09-07T01:26:24.769Z,15.26
2022-09-07T01:28:36.881Z,15.30
2022-09-07T01:30:49.014Z,15.27
2022-09-07T01:33:02.894Z,15.26
2022-09-07T01:35:14.129Z,15.26
2022-09-07T01:37:26.209Z,15.24
2022-09-07T01:39:38.337Z,15.23
2022-09-07T01:41:51.236Z,15.23
2022-09-07T01:44:02.457Z,15.19
2022-09-07T01:46:14.574Z,15.17
2022-09-07T01:48:26.670Z,15.12
2022-09-07T01:50:38.726Z,15.11
2022-09-07T01:52:50.825Z,15.13
2022-09-07T01:55:02.901Z,15.12
2022-09-07T01:57:14.963Z,15.05
2022-09-07T01:59:27.077Z,15.01
2022-09-07T02:01:39.185Z,14.95
2022-09-07T02:03:51.239Z,14.93
2022-09-07T02:06:04.646Z,14.90
2022-09-07T02:08:17.319Z,14.86
2022-09-07T02:10:28.450Z,14.84
2022-09-07T02:12:40.537Z,14.81
2022-09-07T02:14:52.971Z,14.74
2022-09-07T02:17:04.695Z,14.72
2022-09-07T02:19:17.797Z,14.68
2022-09-07T02:21:28.912Z,14.67
2022-09-07T02:23:40.995Z,14.64
2022-09-07T02:25:53.088Z,14.64
2022-09-07T02:28:05.727Z,14.62
2022-09-07T02:30:17.248Z,14.64
2022-09-07T02:32:29.332Z,14.65
2022-09-07T02:34:41.405Z,14.61
2022-09-07T02:36:54.359Z,14.57
2022-09-07T02:39:06.397Z,14.50
2022-09-07T02:41:17.639Z,14.44
2022-09-07T02:43:29.721Z,14.37
2022-09-07T02:45:41.848Z,14.31
2022-09-07T02:47:53.980Z,14.28
2022-09-07T02:50:06.311Z,14.21
2022-09-07T02:52:19.233Z,14.14
2022-09-07T02:54:30.464Z,14.10
2022-09-07T02:56:42.539Z,14.04
2022-09-07T02:58:54.651Z,14.01
2022-09-07T03:01:06.767Z,13.95
2022-09-07T03:03:20.361Z,13.91
2022-09-07T03:05:31.872Z,13.88
2022-09-07T03:07:44.437Z,13.84
2022-09-07T03:09:57.012Z,13.81
2022-09-07T03:12:08.123Z,13.77
2022-09-07T03:14:20.201Z,13.73
2022-09-07T03:16:32.283Z,13.63
2022-09-07T03:18:45.346Z,13.54
2022-09-07T03:20:57.457Z,13.52
2022-09-07T03:23:09.528Z,13.52
2022-09-07T03:25:22.548Z,13.52
2022-09-07T03:27:33.692Z,13.46
2022-09-07T03:29:46.623Z,13.43
2022-09-07T03:31:57.870Z,13.37
2022-09-07T03:34:09.938Z,13.29
2022-09-07T03:36:22.048Z,13.24
2022-09-07T03:38:34.124Z,13.18
2022-09-07T03:40:46.244Z,13.15
2022-09-07T03:42:58.334Z,13.11
2022-09-07T03:45:10.402Z,13.04
2022-09-07T03:47:22.472Z,13.03
2022-09-07T03:49:34.562Z,13.02
2022-09-07T03:51:46.639Z,13.02
2022-09-07T03:53:58.749Z,13.03
2022-09-07T03:56:10.794Z,13.03
2022-09-07T03:58:22.880Z,13.12
2022-09-07T04:00:34.959Z,13.15
2022-09-07T04:02:47.050Z,13.20
2022-09-07T04:04:59.140Z,13.24
2022-09-07T04:07:11.188Z,13.27
2022-09-07T04:09:23.265Z,13.32
2022-09-07T04:11:35.345Z,13.33
2022-09-07T04:13:47.433Z,13.37
2022-09-07T04:15:59.530Z,13.41
2022-09-07T04:18:12.589Z,13.43
2022-09-07T04:20:24.662Z,13.43
2022-09-07T04:22:37.829Z,13.43
2022-09-07T04:24:49.268Z,13.44
2022-09-07T04:27:01.391Z,13.46
2022-09-07T04:29:13.442Z,13.44
2022-09-07T04:31:25.560Z,13.40
2022-09-07T04:33:37.609Z,13.29
2022-09-07T04:35:49.680Z,13.21
2022-09-07T04:38:01.800Z,13.17
2022-09-07T04:40:13.915Z,13.14
2022-09-07T04:42:25.920Z,13.11
2022-09-07T04:44:38.010Z,13.06
2022-09-07T04:46:50.106Z,13.04
2022-09-07T04:49:02.198Z,13.03
2022-09-07T04:51:14.260Z,13.00
2022-09-07T04:53:26.340Z,13.03
2022-09-07T04:55:38.407Z,13.06
2022-09-07T04:57:50.489Z,13.12
2022-09-07T05:00:02.593Z,13.15
2022-09-07T05:02:14.675Z,13.18
2022-09-07T05:04:26.735Z,13.22
2022-09-07T05:06:38.832Z,13.25
2022-09-07T05:08:50.891Z,13.33
2022-09-07T05:11:03.001Z,13.41
2022-09-07T05:13:15.132Z,13.51
2022-09-07T05:15:27.177Z,13.56
2022-09-07T05:17:39.837Z,13.63
2022-09-07T05:19:51.332Z,13.76
2022-09-07T05:22:03.467Z,13.88
2022-09-07T05:24:28.522Z,13.96
2022-09-07T05:26:41.090Z,14.06
2022-09-07T05:30:03.965Z,14.21
2022-09-07T05:32:06.219Z,14.35
2022-09-07T05:34:33.806Z,14.47
2022-09-07T05:35:19.269Z,14.53
2022-09-07T05:37:30.365Z,14.68
2022-09-07T05:39:42.578Z,14.87
2022-09-07T05:41:54.539Z,15.01
2022-09-07T05:45:06.598Z,15.30
2022-09-07T05:47:18.681Z,15.52
2022-09-07T05:49:30.856Z,15.75
2022-09-07T05:51:42.833Z,15.89
2022-09-07T05:53:54.934Z,16.03
2022-09-07T05:56:07.251Z,16.23
2022-09-07T05:58:19.090Z,16.40
2022-09-07T06:00:31.205Z,16.48
2022-09-07T06:02:43.952Z,16.52
2022-09-07T06:04:55.372Z,16.53
2022-09-07T06:07:23.525Z,16.62
2022-09-07T06:09:19.518Z,16.73
2022-09-07T06:11:31.645Z,16.85
2022-09-07T06:13:43.695Z,16.93
2022-09-07T06:15:55.772Z,16.93
2022-09-07T06:18:07.874Z,16.95
2022-09-07T06:20:19.934Z,17.03
2022-09-07T06:22:32.034Z,17.08
2022-09-07T06:24:44.098Z,17.08
2022-09-07T06:26:56.176Z,17.06
2022-09-07T06:29:09.105Z,17.07
2022-09-07T06:31:20.509Z,17.14
2022-09-07T06:33:32.571Z,17.10
2022-09-07T06:35:44.493Z,17.08
2022-09-07T06:37:56.582Z,17.06
2022-09-07T06:40:08.719Z,17.04
2022-09-07T06:42:20.730Z,17.03
2022-09-07T06:44:32.870Z,17.03
2022-09-07T06:47:45.878Z,17.11
2022-09-07T06:49:57.000Z,17.13
2022-09-07T06:52:09.094Z,17.13
2022-09-07T06:56:33.710Z,17.10
2022-09-07T06:58:45.287Z,17.07
2022-09-07T07:00:57.481Z,17.08
2022-09-07T07:03:10.024Z,17.08
2022-09-07T07:05:21.534Z,17.07
2022-09-07T07:07:33.623Z,17.13
2022-09-07T07:09:45.702Z,17.18
2022-09-07T07:11:57.836Z,17.29
2022-09-07T07:14:09.878Z,17.46
2022-09-07T07:16:22.025Z,17.54
2022-09-07T07:18:34.314Z,17.70
2022-09-07T07:20:46.110Z,17.81
2022-09-07T07:22:58.213Z,17.87
2022-09-07T07:25:10.262Z,17.95
2022-09-07T07:27:22.342Z,17.99
2022-09-07T07:29:34.465Z,18.04
2022-09-07T07:31:46.494Z,18.04
2022-09-07T07:33:58.726Z,17.95
2022-09-07T07:36:10.989Z,17.94
2022-09-07T07:40:37.626Z,17.88
2022-09-07T07:42:47.259Z,17.95
2022-09-07T07:46:02.643Z,17.99
2022-09-07T07:48:11.389Z,18.03
2022-09-07T07:50:31.642Z,18.17
2022-09-07T07:53:41.106Z,18.28
2022-09-07T07:53:41.833Z,18.33
2022-09-07T07:55:47.946Z,18.46
2022-09-07T07:57:59.990Z,18.57
2022-09-07T08:00:12.097Z,18.68
2022-09-07T08:02:24.225Z,18.86
2022-09-07T08:04:36.285Z,18.99
2022-09-07T08:06:48.372Z,19.08
2022-09-07T08:09:00.432Z,19.18
2022-09-07T08:11:12.531Z,19.25
2022-09-07T08:13:24.583Z,19.36
2022-09-07T08:15:36.680Z,19.48
2022-09-07T08:17:48.797Z,19.61
2022-09-07T08:20:00.840Z,19.75
2022-09-07T08:22:12.907Z,19.83
2022-09-07T08:24:24.994Z,19.90
2022-09-07T08:26:37.087Z,19.98
2022-09-07T08:28:49.178Z,20.09
2022-09-07T08:31:01.753Z,20.18
2022-09-07T08:33:13.308Z,20.24
2022-09-07T08:35:25.706Z,20.33
2022-09-07T08:37:38.773Z,20.42
2022-09-07T08:39:50.951Z,20.54
2022-09-07T08:42:02.930Z,20.53
2022-09-07T08:44:15.000Z,20.41
2022-09-07T08:46:48.206Z,20.35
2022-09-07T08:48:39.219Z,20.38
2022-09-07T08:50:51.827Z,20.49
2022-09-07T08:53:03.374Z,20.61
2022-09-07T08:55:15.461Z,20.76
2022-09-07T08:57:27.533Z,20.95
2022-09-07T08:59:39.617Z,21.11
2022-09-07T09:05:52.773Z,21.48
2022-09-07T09:08:03.752Z,21.57
2022-09-07T09:10:16.769Z,21.69
2022-09-07T09:12:28.880Z,21.81
2022-09-07T09:14:40.035Z,21.95
2022-09-07T09:16:52.053Z,22.02
2022-09-07T09:19:04.142Z,22.14
2022-09-07T09:21:16.223Z,22.12
2022-09-07T09:23:28.407Z,22.23
2022-09-07T09:25:40.369Z,22.46
2022-09-07T09:27:52.460Z,22.56
2022-09-07T09:30:04.541Z,22.75
2022-09-07T09:32:16.621Z,22.89
2022-09-07T09:34:33.373Z,23.22
2022-09-07T09:36:40.781Z,23.42
2022-09-07T09:38:52.851Z,23.64
2022-09-07T09:41:05.937Z,23.90
2022-09-07T09:43:18.035Z,24.08
2022-09-07T09:45:30.205Z,24.35
2022-09-07T09:47:42.227Z,24.60
2022-09-07T09:49:54.252Z,24.54
2022-09-07T09:54:19.251Z,24.38
2022-09-07T09:56:30.517Z,24.05
2022-09-07T10:00:02.760Z,23.86
2022-09-07T10:04:54.646Z,23.38
2022-09-07T10:07:06.705Z,23.17
2022-09-07T10:09:18.764Z,23.09
2022-09-07T10:12:05.032Z,23.09
2022-09-07T10:13:42.917Z,23.19
2022-09-07T10:15:55.054Z,23.27
2022-09-07T10:18:07.408Z,23.35
2022-09-07T10:20:19.494Z,23.43
2022-09-07T10:22:31.549Z,23.38
2022-09-07T10:24:43.643Z,23.43
2022-09-07T10:26:55.725Z,23.53
2022-09-07T10:29:09.082Z,23.62
2022-09-07T10:31:19.976Z,23.71
2022-09-07T10:33:31.960Z,23.70
2022-09-07T10:35:44.037Z,23.76
2022-09-07T10:37:56.497Z,23.83
2022-09-07T10:40:08.270Z,23.90
2022-09-07T10:42:20.284Z,23.95
2022-09-07T10:44:32.347Z,24.05
2022-09-07T10:46:59.905Z,24.02
2022-09-07T10:47:45.443Z,24.12
2022-09-07T10:50:57.528Z,24.29
2022-09-07T10:53:29.944Z,24.53
2022-09-07T10:56:20.687Z,24.45
2022-09-07T11:00:44.818Z,24.82
2022-09-07T11:05:08.981Z,25.13
2022-09-07T11:07:21.108Z,25.42
2022-09-07T11:09:33.144Z,25.35
2022-09-07T11:12:01.077Z,25.34
2022-09-07T11:12:46.222Z,25.34
2022-09-07T11:14:57.280Z,25.34
2022-09-07T11:17:09.399Z,25.37
2022-09-07T11:19:37.722Z,25.30
2022-09-07T11:23:45.626Z,25.20
2022-09-07T11:25:57.664Z,25.10
2022-09-07T11:28:09.758Z,25.05
2022-09-07T11:30:21.832Z,25.09
2022-09-07T11:32:33.924Z,24.97
2022-09-07T11:34:46.008Z,24.77
2022-09-07T11:36:58.061Z,24.80
2022-09-07T11:39:10.130Z,24.80
2022-09-07T11:41:22.232Z,24.85
2022-09-07T11:43:34.321Z,24.80
2022-09-07T11:45:46.428Z,24.73
2022-09-07T11:47:59.475Z,24.76
2022-09-07T11:50:11.543Z,24.71
2022-09-07T11:52:24.624Z,24.69
2022-09-07T11:54:36.704Z,24.63
2022-09-07T11:56:48.807Z,24.73
2022-09-07T11:59:00.869Z,24.67
2022-09-07T12:01:13.045Z,24.69
2022-09-07T12:03:25.085Z,24.77
2022-09-07T12:05:40.686Z,24.85
2022-09-07T12:07:49.250Z,24.87
2022-09-07T12:10:01.292Z,25.00
2022-09-07T12:12:14.240Z,25.12
2022-09-07T12:14:25.442Z,25.10
2022-09-07T12:16:37.518Z,25.24
2022-09-07T12:18:49.628Z,25.24
2022-09-07T12:21:01.683Z,25.16
2022-09-07T12:23:13.771Z,25.16
2022-09-07T12:25:26.410Z,25.12
2022-09-07T12:27:37.928Z,25.07
2022-09-07T12:29:50.051Z,25.06
2022-09-07T12:34:14.165Z,25.15
2022-09-07T12:36:26.237Z,25.24
2022-09-07T12:38:38.319Z,25.25
2022-09-07T12:40:50.427Z,25.35
2022-09-07T12:43:09.673Z,25.44
2022-09-07T12:45:14.589Z,25.52
2022-09-07T12:47:26.664Z,25.80
2022-09-07T12:49:38.762Z,25.86
2022-09-07T12:52:15.345Z,25.97
2022-09-07T12:52:52.644Z,25.98
2022-09-07T12:55:26.636Z,25.94
2022-09-07T12:57:30.398Z,25.94
2022-09-07T12:58:15.961Z,25.90
2022-09-07T13:00:28.885Z,25.93
2022-09-07T13:02:40.255Z,25.86
2022-09-07T13:04:53.202Z,25.75
2022-09-07T13:07:05.289Z,25.71
2022-09-07T13:09:17.350Z,25.61
2022-09-07T13:11:29.423Z,25.52
2022-09-07T13:14:43.738Z,25.43
2022-09-07T13:17:58.056Z,25.43
2022-09-07T13:20:11.015Z,25.52
2022-09-07T13:22:22.217Z,25.52
2022-09-07T13:24:51.429Z,25.52
2022-09-07T13:25:36.785Z,25.50
2022-09-07T13:27:47.852Z,25.38
2022-09-07T13:30:00.027Z,25.28
2022-09-07T13:32:12.008Z,25.09
2022-09-07T13:34:24.097Z,24.97
2022-09-07T13:36:36.177Z,24.80
2022-09-07T13:38:48.272Z,24.69
2022-09-07T13:41:00.440Z,24.52
2022-09-07T13:43:12.511Z,24.39
2022-09-07T13:45:24.597Z,24.27
2022-09-07T13:47:37.653Z,24.17
2022-09-07T13:49:55.045Z,24.02
2022-09-07T13:52:05.340Z,23.92
2022-09-07T13:54:17.399Z,23.87
2022-09-07T13:56:31.003Z,23.85
2022-09-07T13:58:43.089Z,23.82
2022-09-07T14:00:56.779Z,23.82
2022-09-07T14:03:08.764Z,23.82
2022-09-07T14:05:20.840Z,23.86
2022-09-07T14:07:34.423Z,24.02
2022-09-07T14:09:46.505Z,24.23
2022-09-07T14:11:58.586Z,24.53
2022-09-07T14:14:10.686Z,24.79
2022-09-07T14:16:22.755Z,24.92
2022-09-07T14:18:34.823Z,24.98
2022-09-07T14:20:46.908Z,25.00
2022-09-07T14:22:58.996Z,25.13
2022-09-07T14:25:11.957Z,25.09
2022-09-07T14:27:23.163Z,25.16
2022-09-07T14:29:35.236Z,25.30
2022-09-07T14:31:47.347Z,25.32
2022-09-07T14:34:00.925Z,25.34
2022-09-07T14:36:29.847Z,25.42
2022-09-07T14:40:38.699Z,25.56
2022-09-07T14:42:50.781Z,25.62
2022-09-07T14:45:03.845Z,25.67
2022-09-07T14:47:15.947Z,25.74
2022-09-07T14:49:28.885Z,25.83
2022-09-07T14:51:40.140Z,25.77
2022-09-07T14:53:52.217Z,25.72
2022-09-07T14:56:04.309Z,25.67
2022-09-07T14:58:16.403Z,25.54
2022-09-07T15:00:29.953Z,25.44
2022-09-07T15:02:42.063Z,25.46
2022-09-07T15:04:54.116Z,25.39
2022-09-07T15:07:07.688Z,25.37
2022-09-07T15:09:19.815Z,25.31
2022-09-07T15:11:33.606Z,25.20
2022-09-07T15:13:46.948Z,25.13
2022-09-07T15:15:59.049Z,25.10
2022-09-07T15:18:11.219Z,25.09
2022-09-07T15:20:24.235Z,25.10
2022-09-07T15:22:35.319Z,25.12
2022-09-07T15:24:48.884Z,25.19
2022-09-07T15:25:50.879Z,25.20
2022-09-07T15:28:02.480Z,25.32
2022-09-07T15:30:17.285Z,25.35
2022-09-07T15:32:30.186Z,25.32
2022-09-07T15:34:45.713Z,25.37
2022-09-07T15:36:59.789Z,25.39
2022-09-07T15:39:12.409Z,25.37
2022-09-07T15:41:24.759Z,25.30
2022-09-07T15:43:40.330Z,25.16
2022-09-07T15:45:53.713Z,25.01
2022-09-07T15:48:11.807Z,24.82
2022-09-07T15:50:27.352Z,24.67
2022-09-07T15:52:46.299Z,24.56
2022-09-07T15:55:03.511Z,24.39
2022-09-07T15:59:43.110Z,24.16
2022-09-07T16:01:58.621Z,24.02
2022-09-07T16:04:10.281Z,23.98
2022-09-07T16:06:22.052Z,23.92
2022-09-07T16:08:34.002Z,23.87
2022-09-07T16:10:53.127Z,23.85
2022-09-07T16:13:02.744Z,23.82
2022-09-07T16:15:12.732Z,23.82
2022-09-07T16:17:35.758Z,23.83
2022-09-07T16:19:36.194Z,23.79
2022-09-07T16:21:48.043Z,23.75
2022-09-07T16:24:00.109Z,23.76
2022-09-07T16:26:14.511Z,23.75
2022-09-07T16:28:25.777Z,23.75
2022-09-07T16:30:38.788Z,23.76
2022-09-07T16:32:50.005Z,23.76
2022-09-07T16:35:02.018Z,23.76
2022-09-07T16:37:14.130Z,23.76
2022-09-07T16:39:27.237Z,23.75
2022-09-07T16:41:39.347Z,23.71
2022-09-07T16:43:51.415Z,23.72
2022-09-07T16:46:03.834Z,23.72
2022-09-07T16:48:15.545Z,23.68
2022-09-07T16:50:29.436Z,23.68
2022-09-07T16:52:41.504Z,23.65
2022-09-07T16:54:53.612Z,23.62
2022-09-07T16:57:05.979Z,23.60
2022-09-07T16:59:19.030Z,23.57
2022-09-07T17:01:31.216Z,23.50
2022-09-07T17:03:43.232Z,23.45
2022-09-07T17:05:56.591Z,23.35
2022-09-07T17:08:08.688Z,23.23
2022-09-07T17:10:22.248Z,23.14
2022-09-07T17:12:34.385Z,23.02
2022-09-07T17:14:46.432Z,22.93
2022-09-07T17:17:00.139Z,22.82
2022-09-07T17:20:13.069Z,22.59
2022-09-07T17:22:25.703Z,22.50
2022-09-07T17:24:37.732Z,22.35
2022-09-07T17:26:49.820Z,22.25
2022-09-07T17:29:01.903Z,22.12
2022-09-07T17:32:23.747Z,22.04
2022-09-07T17:32:23.924Z,21.98
2022-09-07T17:34:26.057Z,21.90
2022-09-07T17:36:38.113Z,21.75
2022-09-07T17:39:51.229Z,21.57
2022-09-07T17:42:02.266Z,21.45
2022-09-07T17:44:14.379Z,21.35
2022-09-07T17:46:26.822Z,21.24
2022-09-07T17:48:40.016Z,21.16
2022-09-07T17:50:52.130Z,21.04
2022-09-07T17:53:04.217Z,20.98
2022-09-07T17:55:16.296Z,20.90
2022-09-07T17:57:29.863Z,20.86
2022-09-07T18:01:54.277Z,20.69
2022-09-07T18:04:06.159Z,20.61
2022-09-07T18:06:19.434Z,20.56
2022-09-07T18:08:31.272Z,20.50
2022-09-07T18:11:49.423Z,20.47
2022-09-07T18:14:02.415Z,20.47
2022-09-07T18:16:18.036Z,20.42
2022-09-07T18:18:30.072Z,20.39
2022-09-07T18:20:48.152Z,20.33
2022-09-07T18:23:00.280Z,20.28
2022-09-07T18:25:12.329Z,20.24
2022-09-07T18:27:24.412Z,20.20
2022-09-07T18:29:36.496Z,20.16
2022-09-07T18:31:48.609Z,20.15
2022-09-07T18:34:01.723Z,20.12
2022-09-07T18:36:12.731Z,20.08
2022-09-07T18:38:26.306Z,20.00
2022-09-07T18:40:39.388Z,19.95
2022-09-07T18:42:52.570Z,19.93
2022-09-07T18:47:27.535Z,19.93
2022-09-07T18:49:38.718Z,19.91
2022-09-07T18:53:07.309Z,19.87
2022-09-07T18:55:14.879Z,19.80
2022-09-07T18:57:34.018Z,19.79
2022-09-07T18:59:49.521Z,19.79
2022-09-07T19:02:08.495Z,19.75
2022-09-07T19:04:24.810Z,19.70
2022-09-07T19:06:42.300Z,19.66
2022-09-07T19:08:54.401Z,19.65
2022-09-07T19:11:06.585Z,19.65
2022-09-07T19:13:19.592Z,19.61
2022-09-07T19:15:35.165Z,19.58
2022-09-07T19:17:47.239Z,19.54
2022-09-07T19:20:00.311Z,19.50
2022-09-07T19:22:13.878Z,19.46
2022-09-07T19:24:25.985Z,19.39
2022-09-07T19:26:38.047Z,19.38
2022-09-07T19:28:53.804Z,19.38
2022-09-07T19:31:04.062Z,19.35
2022-09-07T19:33:16.104Z,19.32
2022-09-07T19:35:29.206Z,19.24
2022-09-07T19:37:43.750Z,19.20
2022-09-07T19:39:55.922Z,19.17
2022-09-07T19:42:08.894Z,19.13
2022-09-07T19:44:20.991Z,19.10
2022-09-07T19:46:33.113Z,19.05
2022-09-07T19:48:45.169Z,18.99
2022-09-07T19:50:58.541Z,18.94
2022-09-07T19:53:10.606Z,18.87
2022-09-07T19:55:23.545Z,18.82
2022-09-07T19:57:34.847Z,18.73
2022-09-07T19:59:46.887Z,18.65
2022-09-07T20:01:58.984Z,18.61
2022-09-07T20:04:15.996Z,18.57
2022-09-07T20:06:24.139Z,18.50
2022-09-07T20:08:36.264Z,18.49
2022-09-07T20:10:48.313Z,18.43
2022-09-07T20:13:00.402Z,18.42
2022-09-07T20:15:13.462Z,18.37
2022-09-07T20:17:25.545Z,18.31
2022-09-07T20:19:41.176Z,18.27
2022-09-07T20:21:53.193Z,18.24
2022-09-07T20:24:05.279Z,18.22
2022-09-07T20:26:18.378Z,18.15
2022-09-07T20:28:30.449Z,18.13
2022-09-07T20:30:42.549Z,18.09
2022-09-07T20:32:54.609Z,18.06
2022-09-07T20:35:06.689Z,18.02
2022-09-07T20:37:18.763Z,17.99
2022-09-07T20:39:33.598Z,17.99
2022-09-07T20:41:42.944Z,18.00
2022-09-07T20:43:55.003Z,18.02
2022-09-07T20:46:07.657Z,17.97
2022-09-07T20:48:19.185Z,17.95
2022-09-07T20:50:31.258Z,17.94
2022-09-07T20:52:43.359Z,17.89
2022-09-07T20:54:55.419Z,17.85
2022-09-07T20:57:07.500Z,17.78
2022-09-07T20:59:19.595Z,17.73
2022-09-07T21:01:31.674Z,17.71
2022-09-07T21:03:48.474Z,17.69
2022-09-07T21:05:56.688Z,17.64
2022-09-07T21:08:08.769Z,17.57
2022-09-07T21:10:20.006Z,17.54
2022-09-07T21:12:32.107Z,17.50
2022-09-07T21:14:44.220Z,17.47
2022-09-07T21:16:56.827Z,17.44
2022-09-07T21:19:08.341Z,17.40
2022-09-07T21:21:20.926Z,17.32
2022-09-07T21:23:32.662Z,17.30
2022-09-07T21:25:44.590Z,17.29
2022-09-07T21:27:56.656Z,17.32
2022-09-07T21:30:08.743Z,17.35
2022-09-07T21:32:20.823Z,17.36
2022-09-07T21:34:32.901Z,17.38
2022-09-07T21:36:45.851Z,17.38
2022-09-07T21:38:58.411Z,17.41
2022-09-07T21:41:10.131Z,17.43
2022-09-07T21:43:22.217Z,17.47
2022-09-07T21:45:34.303Z,17.53
2022-09-07T21:47:46.414Z,17.53
2022-09-07T21:49:58.469Z,17.59
2022-09-07T21:52:10.549Z,17.67
2022-09-07T21:54:22.632Z,17.67
2022-09-07T21:56:34.717Z,17.70
2022-09-07T21:58:47.337Z,17.74
2022-09-07T22:00:59.287Z,17.76
2022-09-07T22:03:11.263Z,17.79
2022-09-07T22:05:23.340Z,17.82
2022-09-07T22:07:35.420Z,17.81
2022-09-07T22:09:48.363Z,17.81
2022-09-07T22:11:59.579Z,17.76
2022-09-07T22:14:12.175Z,17.76
2022-09-07T22:16:23.773Z,17.69
2022-09-07T22:18:35.814Z,17.63
2022-09-07T22:20:47.919Z,17.57
2022-09-07T22:22:59.971Z,17.53
2022-09-07T22:25:12.058Z,17.47
2022-09-07T22:27:24.978Z,17.38
2022-09-07T22:29:36.216Z,17.30
2022-09-07T22:31:48.358Z,17.25
2022-09-07T22:34:00.375Z,17.20
2022-09-07T22:36:12.462Z,17.14
2022-09-07T22:38:24.533Z,17.13
2022-09-07T22:40:36.619Z,17.07
2022-09-07T22:42:48.718Z,16.99
2022-09-07T22:45:01.731Z,16.96
2022-09-07T22:47:13.857Z,16.89
2022-09-07T22:49:25.923Z,16.86
2022-09-07T22:51:38.027Z,16.81
2022-09-07T22:53:50.952Z,16.81
2022-09-07T22:56:02.171Z,16.80
2022-09-07T22:58:14.240Z,16.77
2022-09-07T23:00:26.334Z,16.77
2022-09-07T23:02:39.790Z,16.75
2022-09-07T23:04:50.599Z,16.75
2022-09-07T23:07:02.622Z,16.78
2022-09-07T23:09:15.536Z,16.77
2022-09-07T23:11:26.771Z,16.74
2022-09-07T23:13:38.856Z,16.70
2022-09-07T23:15:50.985Z,16.63
2022-09-07T23:18:02.991Z,16.56
2022-09-07T23:20:15.071Z,16.55
2022-09-07T23:22:27.161Z,16.50
2022-09-07T23:24:39.245Z,16.48
2022-09-07T23:26:51.353Z,16.44
2022-09-07T23:29:03.456Z,16.42
2022-09-07T23:31:16.608Z,16.42
2022-09-07T23:33:28.638Z,16.44
2022-09-07T23:35:40.720Z,16.42
2022-09-07T23:37:52.809Z,16.40
2022-09-07T23:40:05.265Z,16.44
2022-09-07T23:42:17.257Z,16.45
2022-09-07T23:44:29.337Z,16.48
2022-09-07T23:46:41.463Z,16.50
2022-09-07T23:48:53.529Z,16.55
2022-09-07T23:51:05.574Z,16.56
2022-09-07T23:53:17.657Z,16.63
2022-09-07T23:55:29.738Z,16.73
2022-09-07T23:57:41.813Z,16.73
2022-09-07T23:59:53.913Z,16.68
